sensor_id;sensor_type;location;lat;lon;timestamp;temperature;humidity
9537;DHT22;4807;48.024;11.726;2022-07-19T00:01:39;15.70;93.80
9537;DHT22;4807;48.024;11.726;2022-07-19T00:04:51;15.60;94.20
9537;DHT22;4807;48.024;11.726;2022-07-19T00:07:59;15.50;94.40
9537;DHT22;4807;48.024;11.726;2022-07-19T00:11:07;15.50;94.40
9537;DHT22;4807;48.024;11.726;2022-07-19T00:14:18;15.50;94.90
9537;DHT22;4807;48.024;11.726;2022-07-19T00:17:29;15.50;95.10
9537;DHT22;4807;48.024;11.726;2022-07-19T00:20:38;15.40;95.10
9537;DHT22;4807;48.024;11.726;2022-07-19T00:23:49;15.20;95.20
9537;DHT22;4807;48.024;11.726;2022-07-19T00:27:01;15.30;95.60
9537;DHT22;4807;48.024;11.726;2022-07-19T00:30:10;15.20;95.90
9537;DHT22;4807;48.024;11.726;2022-07-19T00:33:21;15.20;96.10
9537;DHT22;4807;48.024;11.726;2022-07-19T00:36:34;15.20;96.30
9537;DHT22;4807;48.024;11.726;2022-07-19T00:39:44;15.10;96.60
9537;DHT22;4807;48.024;11.726;2022-07-19T00:42:58;15.20;96.80
9537;DHT22;4807;48.024;11.726;2022-07-19T00:46:12;15.10;96.60
9537;DHT22;4807;48.024;11.726;2022-07-19T00:49:22;15.10;96.90
9537;DHT22;4807;48.024;11.726;2022-07-19T00:52:33;15.10;97.50
9537;DHT22;4807;48.024;11.726;2022-07-19T00:55:44;15.10;97.40
9537;DHT22;4807;48.024;11.726;2022-07-19T00:58:57;15.00;97.60
9537;DHT22;4807;48.024;11.726;2022-07-19T01:02:11;14.80;98.00
9537;DHT22;4807;48.024;11.726;2022-07-19T01:05:22;14.70;98.30
9537;DHT22;4807;48.024;11.726;2022-07-19T01:08:32;14.60;98.50
9537;DHT22;4807;48.024;11.726;2022-07-19T01:11:40;14.60;98.70
9537;DHT22;4807;48.024;11.726;2022-07-19T01:14:49;14.60;99.10
9537;DHT22;4807;48.024;11.726;2022-07-19T01:17:57;14.50;99.20
9537;DHT22;4807;48.024;11.726;2022-07-19T01:21:07;14.50;99.30
9537;DHT22;4807;48.024;11.726;2022-07-19T01:24:22;14.50;99.60
9537;DHT22;4807;48.024;11.726;2022-07-19T01:27:31;14.50;99.70
9537;DHT22;4807;48.024;11.726;2022-07-19T01:30:39;14.50;99.50
9537;DHT22;4807;48.024;11.726;2022-07-19T01:33:47;17.00;99.90
9537;DHT22;4807;48.024;11.726;2022-07-19T01:36:57;14.50;99.90
9537;DHT22;4807;48.024;11.726;2022-07-19T01:40:07;14.50;99.90
9537;DHT22;4807;48.024;11.726;2022-07-19T01:43:17;14.50;99.90
9537;DHT22;4807;48.024;11.726;2022-07-19T01:46:25;14.50;99.90
9537;DHT22;4807;48.024;11.726;2022-07-19T01:49:33;14.60;99.90
9537;DHT22;4807;48.024;11.726;2022-07-19T01:52:43;14.50;99.50
9537;DHT22;4807;48.024;11.726;2022-07-19T01:55:56;14.50;99.70
9537;DHT22;4807;48.024;11.726;2022-07-19T01:59:05;14.50;99.90
9537;DHT22;4807;48.024;11.726;2022-07-19T02:02:13;14.40;99.90
9537;DHT22;4807;48.024;11.726;2022-07-19T02:05:22;14.40;99.90
9537;DHT22;4807;48.024;11.726;2022-07-19T02:08:31;14.30;99.90
9537;DHT22;4807;48.024;11.726;2022-07-19T02:11:40;14.30;99.90
9537;DHT22;4807;48.024;11.726;2022-07-19T02:14:48;14.30;99.90
9537;DHT22;4807;48.024;11.726;2022-07-19T02:17:57;14.40;99.80
9537;DHT22;4807;48.024;11.726;2022-07-19T02:21:05;14.40;99.90
9537;DHT22;4807;48.024;11.726;2022-07-19T02:24:15;14.40;99.90
9537;DHT22;4807;48.024;11.726;2022-07-19T02:27:23;14.40;99.90
9537;DHT22;4807;48.024;11.726;2022-07-19T02:30:32;14.40;99.90
9537;DHT22;4807;48.024;11.726;2022-07-19T02:33:40;14.30;99.90
9537;DHT22;4807;48.024;11.726;2022-07-19T02:36:48;14.30;99.90
9537;DHT22;4807;48.024;11.726;2022-07-19T02:39:58;14.30;99.90
9537;DHT22;4807;48.024;11.726;2022-07-19T02:43:06;14.20;99.90
9537;DHT22;4807;48.024;11.726;2022-07-19T02:46:14;14.10;99.90
9537;DHT22;4807;48.024;11.726;2022-07-19T02:49:23;14.20;99.90
9537;DHT22;4807;48.024;11.726;2022-07-19T02:52:31;14.20;99.90
9537;DHT22;4807;48.024;11.726;2022-07-19T02:55:41;14.20;99.90
9537;DHT22;4807;48.024;11.726;2022-07-19T02:58:49;14.20;99.90
9537;DHT22;4807;48.024;11.726;2022-07-19T03:01:58;14.10;99.90
9537;DHT22;4807;48.024;11.726;2022-07-19T03:05:07;14.10;99.90
9537;DHT22;4807;48.024;11.726;2022-07-19T03:08:16;14.00;99.90
9537;DHT22;4807;48.024;11.726;2022-07-19T03:11:26;14.40;99.90
9537;DHT22;4807;48.024;11.726;2022-07-19T03:14:34;14.00;99.90
9537;DHT22;4807;48.024;11.726;2022-07-19T03:17:42;14.00;99.90
9537;DHT22;4807;48.024;11.726;2022-07-19T03:20:51;14.00;99.90
9537;DHT22;4807;48.024;11.726;2022-07-19T03:23:59;14.00;99.90
9537;DHT22;4807;48.024;11.726;2022-07-19T03:27:10;14.00;99.90
9537;DHT22;4807;48.024;11.726;2022-07-19T03:30:18;14.00;99.90
9537;DHT22;4807;48.024;11.726;2022-07-19T03:33:27;14.00;99.90
9537;DHT22;4807;48.024;11.726;2022-07-19T03:36:35;13.90;99.90
9537;DHT22;4807;48.024;11.726;2022-07-19T03:39:44;13.90;99.90
9537;DHT22;4807;48.024;11.726;2022-07-19T03:42:53;13.70;99.90
9537;DHT22;4807;48.024;11.726;2022-07-19T03:46:04;13.70;99.90
9537;DHT22;4807;48.024;11.726;2022-07-19T03:49:13;13.80;99.90
9537;DHT22;4807;48.024;11.726;2022-07-19T03:52:21;13.80;99.90
9537;DHT22;4807;48.024;11.726;2022-07-19T03:55:30;13.90;99.90
9537;DHT22;4807;48.024;11.726;2022-07-19T03:58:41;14.00;99.90
9537;DHT22;4807;48.024;11.726;2022-07-19T04:01:49;14.00;99.90
9537;DHT22;4807;48.024;11.726;2022-07-19T04:05:00;14.00;99.90
9537;DHT22;4807;48.024;11.726;2022-07-19T04:08:11;14.00;99.90
9537;DHT22;4807;48.024;11.726;2022-07-19T04:11:22;14.10;99.90
9537;DHT22;4807;48.024;11.726;2022-07-19T04:14:35;14.00;99.90
9537;DHT22;4807;48.024;11.726;2022-07-19T04:17:47;14.00;99.90
9537;DHT22;4807;48.024;11.726;2022-07-19T04:20:55;14.00;99.90
9537;DHT22;4807;48.024;11.726;2022-07-19T04:24:05;14.10;99.90
9537;DHT22;4807;48.024;11.726;2022-07-19T04:27:17;14.10;99.90
9537;DHT22;4807;48.024;11.726;2022-07-19T04:30:28;14.10;99.90
9537;DHT22;4807;48.024;11.726;2022-07-19T04:33:36;14.10;99.90
9537;DHT22;4807;48.024;11.726;2022-07-19T04:36:45;14.20;99.90
9537;DHT22;4807;48.024;11.726;2022-07-19T04:39:54;14.30;99.90
9537;DHT22;4807;48.024;11.726;2022-07-19T04:43:04;14.40;99.90
9537;DHT22;4807;48.024;11.726;2022-07-19T04:46:16;14.50;99.90
9537;DHT22;4807;48.024;11.726;2022-07-19T04:49:27;14.60;99.90
9537;DHT22;4807;48.024;11.726;2022-07-19T04:52:36;14.70;99.80
9537;DHT22;4807;48.024;11.726;2022-07-19T04:55:45;14.80;99.80
9537;DHT22;4807;48.024;11.726;2022-07-19T04:58:54;14.90;99.70
9537;DHT22;4807;48.024;11.726;2022-07-19T05:02:04;15.00;99.90
9537;DHT22;4807;48.024;11.726;2022-07-19T05:05:16;15.00;99.70
9537;DHT22;4807;48.024;11.726;2022-07-19T05:08:24;15.10;99.50
9537;DHT22;4807;48.024;11.726;2022-07-19T05:11:32;15.20;99.60
9537;DHT22;4807;48.024;11.726;2022-07-19T05:14:44;15.30;99.40
9537;DHT22;4807;48.024;11.726;2022-07-19T05:17:54;15.50;99.20
9537;DHT22;4807;48.024;11.726;2022-07-19T05:21:03;15.60;98.80
9537;DHT22;4807;48.024;11.726;2022-07-19T05:24:15;15.80;98.30
9537;DHT22;4807;48.024;11.726;2022-07-19T05:27:25;15.90;97.70
9537;DHT22;4807;48.024;11.726;2022-07-19T05:30:34;16.00;97.90
9537;DHT22;4807;48.024;11.726;2022-07-19T05:33:43;16.30;97.70
9537;DHT22;4807;48.024;11.726;2022-07-19T05:36:52;16.50;97.30
9537;DHT22;4807;48.024;11.726;2022-07-19T05:40:03;16.70;96.60
9537;DHT22;4807;48.024;11.726;2022-07-19T05:43:12;16.90;96.70
9537;DHT22;4807;48.024;11.726;2022-07-19T05:46:24;17.10;96.40
9537;DHT22;4807;48.024;11.726;2022-07-19T05:49:34;17.20;95.80
9537;DHT22;4807;48.024;11.726;2022-07-19T05:52:43;17.40;95.20
9537;DHT22;4807;48.024;11.726;2022-07-19T05:55:52;17.50;94.90
9537;DHT22;4807;48.024;11.726;2022-07-19T05:59:00;17.80;95.10
9537;DHT22;4807;48.024;11.726;2022-07-19T06:02:10;17.90;94.70
9537;DHT22;4807;48.024;11.726;2022-07-19T06:05:20;18.00;94.60
9537;DHT22;4807;48.024;11.726;2022-07-19T06:08:29;18.30;93.90
9537;DHT22;4807;48.024;11.726;2022-07-19T06:11:43;17.50;91.90
9537;DHT22;4807;48.024;11.726;2022-07-19T06:15:07;20.30;91.30
9537;DHT22;4807;48.024;11.726;2022-07-19T06:18:22;22.70;78.30
9537;DHT22;4807;48.024;11.726;2022-07-19T06:21:33;22.80;77.10
9537;DHT22;4807;48.024;11.726;2022-07-19T06:28:49;24.10;69.10
9537;DHT22;4807;48.024;11.726;2022-07-19T06:32:12;25.70;67.10
9537;DHT22;4807;48.024;11.726;2022-07-19T06:35:23;26.20;63.90
9537;DHT22;4807;48.024;11.726;2022-07-19T06:38:32;26.70;62.00
9537;DHT22;4807;48.024;11.726;2022-07-19T06:41:41;27.00;61.10
9537;DHT22;4807;48.024;11.726;2022-07-19T06:44:57;27.80;59.20
9537;DHT22;4807;48.024;11.726;2022-07-19T06:48:08;28.50;57.40
9537;DHT22;4807;48.024;11.726;2022-07-19T06:51:17;29.00;56.40
9537;DHT22;4807;48.024;11.726;2022-07-19T06:54:29;29.30;54.90
9537;DHT22;4807;48.024;11.726;2022-07-19T06:57:39;29.20;54.70
9537;DHT22;4807;48.024;11.726;2022-07-19T07:00:51;29.60;53.70
9537;DHT22;4807;48.024;11.726;2022-07-19T07:03:59;30.20;52.60
9537;DHT22;4807;48.024;11.726;2022-07-19T07:07:08;30.00;52.10
9537;DHT22;4807;48.024;11.726;2022-07-19T07:10:18;30.80;53.80
9537;DHT22;4807;48.024;11.726;2022-07-19T07:13:26;29.80;52.60
9537;DHT22;4807;48.024;11.726;2022-07-19T07:16:36;30.40;51.70
9537;DHT22;4807;48.024;11.726;2022-07-19T07:19:47;30.80;50.90
9537;DHT22;4807;48.024;11.726;2022-07-19T07:22:57;31.80;48.70
9537;DHT22;4807;48.024;11.726;2022-07-19T07:26:07;32.50;48.40
9537;DHT22;4807;48.024;11.726;2022-07-19T07:29:15;32.60;47.00
9537;DHT22;4807;48.024;11.726;2022-07-19T07:32:24;33.00;47.30
9537;DHT22;4807;48.024;11.726;2022-07-19T07:35:33;32.80;45.20
9537;DHT22;4807;48.024;11.726;2022-07-19T07:38:43;31.80;47.00
9537;DHT22;4807;48.024;11.726;2022-07-19T07:41:53;31.30;48.30
9537;DHT22;4807;48.024;11.726;2022-07-19T07:45:17;31.60;49.10
9537;DHT22;4807;48.024;11.726;2022-07-19T07:48:25;32.20;48.00
9537;DHT22;4807;48.024;11.726;2022-07-19T07:51:34;32.00;48.00
9537;DHT22;4807;48.024;11.726;2022-07-19T07:54:52;31.90;46.70
9537;DHT22;4807;48.024;11.726;2022-07-19T07:58:22;30.70;49.90
9537;DHT22;4807;48.024;11.726;2022-07-19T08:01:31;31.50;49.00
9537;DHT22;4807;48.024;11.726;2022-07-19T08:04:40;31.80;46.90
9537;DHT22;4807;48.024;11.726;2022-07-19T08:07:48;32.10;46.40
9537;DHT22;4807;48.024;11.726;2022-07-19T08:10:59;31.80;47.50
9537;DHT22;4807;48.024;11.726;2022-07-19T08:14:09;31.30;47.60
9537;DHT22;4807;48.024;11.726;2022-07-19T08:17:17;30.60;48.60
9537;DHT22;4807;48.024;11.726;2022-07-19T08:20:30;30.70;50.40
9537;DHT22;4807;48.024;11.726;2022-07-19T08:23:40;31.00;47.70
9537;DHT22;4807;48.024;11.726;2022-07-19T08:26:51;30.20;49.00
9537;DHT22;4807;48.024;11.726;2022-07-19T08:30:14;30.30;49.80
9537;DHT22;4807;48.024;11.726;2022-07-19T08:33:32;30.30;48.50
9537;DHT22;4807;48.024;11.726;2022-07-19T08:36:53;29.50;50.00
9537;DHT22;4807;48.024;11.726;2022-07-19T08:40:17;30.60;49.10
9537;DHT22;4807;48.024;11.726;2022-07-19T08:43:35;30.50;47.90
9537;DHT22;4807;48.024;11.726;2022-07-19T08:46:45;29.70;49.20
9537;DHT22;4807;48.024;11.726;2022-07-19T08:49:54;29.00;49.20
9537;DHT22;4807;48.024;11.726;2022-07-19T08:53:02;28.50;50.60
9537;DHT22;4807;48.024;11.726;2022-07-19T08:56:13;28.70;50.90
9537;DHT22;4807;48.024;11.726;2022-07-19T08:59:40;29.30;50.00
9537;DHT22;4807;48.024;11.726;2022-07-19T09:02:54;30.70;49.70
9537;DHT22;4807;48.024;11.726;2022-07-19T09:06:04;31.40;47.60
9537;DHT22;4807;48.024;11.726;2022-07-19T09:09:14;31.30;47.10
9537;DHT22;4807;48.024;11.726;2022-07-19T09:12:24;30.20;49.00
9537;DHT22;4807;48.024;11.726;2022-07-19T09:15:42;30.00;50.30
9537;DHT22;4807;48.024;11.726;2022-07-19T09:19:03;30.30;48.80
9537;DHT22;4807;48.024;11.726;2022-07-19T09:22:13;30.40;49.70
9537;DHT22;4807;48.024;11.726;2022-07-19T09:25:32;30.70;48.50
9537;DHT22;4807;48.024;11.726;2022-07-19T09:28:42;30.60;49.90
9537;DHT22;4807;48.024;11.726;2022-07-19T09:32:01;29.50;49.20
9537;DHT22;4807;48.024;11.726;2022-07-19T09:35:14;28.80;51.00
9537;DHT22;4807;48.024;11.726;2022-07-19T09:38:24;29.20;51.30
9537;DHT22;4807;48.024;11.726;2022-07-19T09:41:34;29.60;50.10
9537;DHT22;4807;48.024;11.726;2022-07-19T09:44:56;29.80;50.20
9537;DHT22;4807;48.024;11.726;2022-07-19T09:48:20;29.80;48.90
9537;DHT22;4807;48.024;11.726;2022-07-19T09:51:42;29.80;51.80
9537;DHT22;4807;48.024;11.726;2022-07-19T09:55:07;29.50;51.40
9537;DHT22;4807;48.024;11.726;2022-07-19T09:58:30;29.00;53.50
9537;DHT22;4807;48.024;11.726;2022-07-19T10:01:56;29.50;53.30
9537;DHT22;4807;48.024;11.726;2022-07-19T10:05:10;30.00;50.40
9537;DHT22;4807;48.024;11.726;2022-07-19T10:08:35;30.20;48.70
9537;DHT22;4807;48.024;11.726;2022-07-19T10:11:54;30.10;46.50
9537;DHT22;4807;48.024;11.726;2022-07-19T10:15:11;29.60;46.90
9537;DHT22;4807;48.024;11.726;2022-07-19T10:18:39;29.50;46.80
9537;DHT22;4807;48.024;11.726;2022-07-19T10:22:18;29.70;47.90
9537;DHT22;4807;48.024;11.726;2022-07-19T10:25:44;30.00;46.10
9537;DHT22;4807;48.024;11.726;2022-07-19T10:29:06;30.20;43.90
9537;DHT22;4807;48.024;11.726;2022-07-19T10:32:16;30.40;44.90
9537;DHT22;4807;48.024;11.726;2022-07-19T10:35:28;30.50;45.80
9537;DHT22;4807;48.024;11.726;2022-07-19T10:38:38;30.50;43.90
9537;DHT22;4807;48.024;11.726;2022-07-19T10:42:08;30.30;43.80
9537;DHT22;4807;48.024;11.726;2022-07-19T10:45:20;30.10;43.80
9537;DHT22;4807;48.024;11.726;2022-07-19T10:48:36;29.50;44.40
9537;DHT22;4807;48.024;11.726;2022-07-19T10:51:46;29.40;44.30
9537;DHT22;4807;48.024;11.726;2022-07-19T10:55:25;29.40;43.40
9537;DHT22;4807;48.024;11.726;2022-07-19T10:58:48;29.40;45.00
9537;DHT22;4807;48.024;11.726;2022-07-19T11:01:57;29.40;46.70
9537;DHT22;4807;48.024;11.726;2022-07-19T11:05:28;29.50;46.70
9537;DHT22;4807;48.024;11.726;2022-07-19T11:08:39;29.60;45.60
9537;DHT22;4807;48.024;11.726;2022-07-19T11:11:50;29.60;44.40
9537;DHT22;4807;48.024;11.726;2022-07-19T11:15:03;29.60;45.50
9537;DHT22;4807;48.024;11.726;2022-07-19T11:18:23;29.80;44.70
9537;DHT22;4807;48.024;11.726;2022-07-19T11:21:35;29.80;45.00
9537;DHT22;4807;48.024;11.726;2022-07-19T11:25:09;30.10;44.40
9537;DHT22;4807;48.024;11.726;2022-07-19T11:28:31;30.30;44.80
9537;DHT22;4807;48.024;11.726;2022-07-19T11:31:49;30.30;45.50
9537;DHT22;4807;48.024;11.726;2022-07-19T11:35:00;30.30;43.40
9537;DHT22;4807;48.024;11.726;2022-07-19T11:38:11;30.10;41.80
9537;DHT22;4807;48.024;11.726;2022-07-19T11:41:21;29.90;43.50
9537;DHT22;4807;48.024;11.726;2022-07-19T11:44:37;29.90;41.80
9537;DHT22;4807;48.024;11.726;2022-07-19T11:47:49;29.80;40.80
9537;DHT22;4807;48.024;11.726;2022-07-19T11:51:06;29.80;41.20
9537;DHT22;4807;48.024;11.726;2022-07-19T11:54:18;29.80;41.80
9537;DHT22;4807;48.024;11.726;2022-07-19T11:57:27;29.70;42.10
9537;DHT22;4807;48.024;11.726;2022-07-19T12:00:38;29.70;42.50
9537;DHT22;4807;48.024;11.726;2022-07-19T12:03:56;29.80;41.70
9537;DHT22;4807;48.024;11.726;2022-07-19T12:07:08;30.00;42.50
9537;DHT22;4807;48.024;11.726;2022-07-19T12:10:42;30.20;41.20
9537;DHT22;4807;48.024;11.726;2022-07-19T12:13:52;30.30;42.80
9537;DHT22;4807;48.024;11.726;2022-07-19T12:17:13;30.40;44.50
9537;DHT22;4807;48.024;11.726;2022-07-19T12:20:24;30.50;42.60
9537;DHT22;4807;48.024;11.726;2022-07-19T12:24:23;30.50;41.30
9537;DHT22;4807;48.024;11.726;2022-07-19T12:27:33;30.40;40.90
9537;DHT22;4807;48.024;11.726;2022-07-19T12:30:43;30.30;42.30
9537;DHT22;4807;48.024;11.726;2022-07-19T12:34:04;30.40;45.50
9537;DHT22;4807;48.024;11.726;2022-07-19T12:37:29;30.30;42.20
9537;DHT22;4807;48.024;11.726;2022-07-19T12:41:06;30.20;40.80
9537;DHT22;4807;48.024;11.726;2022-07-19T12:44:25;30.20;42.10
9537;DHT22;4807;48.024;11.726;2022-07-19T12:47:42;30.30;42.10
9537;DHT22;4807;48.024;11.726;2022-07-19T12:50:56;30.30;42.80
9537;DHT22;4807;48.024;11.726;2022-07-19T12:54:05;30.30;39.30
9537;DHT22;4807;48.024;11.726;2022-07-19T12:57:14;30.40;41.00
9537;DHT22;4807;48.024;11.726;2022-07-19T13:00:25;30.50;42.70
9537;DHT22;4807;48.024;11.726;2022-07-19T13:03:35;30.40;39.40
9537;DHT22;4807;48.024;11.726;2022-07-19T13:06:43;30.60;41.60
9537;DHT22;4807;48.024;11.726;2022-07-19T13:09:52;30.70;42.30
9537;DHT22;4807;48.024;11.726;2022-07-19T13:13:01;30.80;41.30
9537;DHT22;4807;48.024;11.726;2022-07-19T13:16:11;30.80;42.50
9537;DHT22;4807;48.024;11.726;2022-07-19T13:19:19;30.70;41.90
9537;DHT22;4807;48.024;11.726;2022-07-19T13:22:28;30.70;41.20
9537;DHT22;4807;48.024;11.726;2022-07-19T13:25:37;30.60;41.40
9537;DHT22;4807;48.024;11.726;2022-07-19T13:28:50;30.80;42.30
9537;DHT22;4807;48.024;11.726;2022-07-19T13:31:58;31.00;42.30
9537;DHT22;4807;48.024;11.726;2022-07-19T13:35:08;31.20;42.90
9537;DHT22;4807;48.024;11.726;2022-07-19T13:38:17;31.20;40.40
9537;DHT22;4807;48.024;11.726;2022-07-19T13:41:27;31.20;40.60
9537;DHT22;4807;48.024;11.726;2022-07-19T13:44:35;31.20;39.70
9537;DHT22;4807;48.024;11.726;2022-07-19T13:47:43;31.20;41.70
9537;DHT22;4807;48.024;11.726;2022-07-19T13:50:52;31.20;39.80
9537;DHT22;4807;48.024;11.726;2022-07-19T13:54:04;31.20;40.90
9537;DHT22;4807;48.024;11.726;2022-07-19T13:57:14;31.00;41.80
9537;DHT22;4807;48.024;11.726;2022-07-19T14:00:26;31.20;42.70
9537;DHT22;4807;48.024;11.726;2022-07-19T14:03:51;31.30;41.00
9537;DHT22;4807;48.024;11.726;2022-07-19T14:07:08;31.30;40.00
9537;DHT22;4807;48.024;11.726;2022-07-19T14:10:33;31.20;39.20
9537;DHT22;4807;48.024;11.726;2022-07-19T14:14:01;31.20;39.40
9537;DHT22;4807;48.024;11.726;2022-07-19T14:17:18;31.20;38.80
9537;DHT22;4807;48.024;11.726;2022-07-19T14:20:27;31.20;38.50
9537;DHT22;4807;48.024;11.726;2022-07-19T14:23:35;31.10;38.40
9537;DHT22;4807;48.024;11.726;2022-07-19T14:26:43;31.00;37.90
9537;DHT22;4807;48.024;11.726;2022-07-19T14:29:53;31.00;37.30
9537;DHT22;4807;48.024;11.726;2022-07-19T14:33:02;31.00;36.90
9537;DHT22;4807;48.024;11.726;2022-07-19T14:36:10;31.00;37.70
9537;DHT22;4807;48.024;11.726;2022-07-19T14:39:19;30.90;37.60
9537;DHT22;4807;48.024;11.726;2022-07-19T14:42:27;31.00;36.90
9537;DHT22;4807;48.024;11.726;2022-07-19T14:45:37;30.90;37.60
9537;DHT22;4807;48.024;11.726;2022-07-19T14:48:45;31.00;38.20
9537;DHT22;4807;48.024;11.726;2022-07-19T14:51:55;31.20;39.00
9537;DHT22;4807;48.024;11.726;2022-07-19T14:55:04;31.10;37.70
9537;DHT22;4807;48.024;11.726;2022-07-19T14:58:13;31.00;39.10
9537;DHT22;4807;48.024;11.726;2022-07-19T15:01:23;30.90;40.60
9537;DHT22;4807;48.024;11.726;2022-07-19T15:04:31;31.00;41.50
9537;DHT22;4807;48.024;11.726;2022-07-19T15:07:40;31.00;40.20
9537;DHT22;4807;48.024;11.726;2022-07-19T15:10:48;31.00;39.30
9537;DHT22;4807;48.024;11.726;2022-07-19T15:13:56;31.00;39.70
9537;DHT22;4807;48.024;11.726;2022-07-19T15:17:06;31.00;41.20
9537;DHT22;4807;48.024;11.726;2022-07-19T15:20:16;31.00;40.00
9537;DHT22;4807;48.024;11.726;2022-07-19T15:23:31;31.00;41.40
9537;DHT22;4807;48.024;11.726;2022-07-19T15:26:47;29.30;41.10
9537;DHT22;4807;48.024;11.726;2022-07-19T15:30:20;30.80;42.60
9537;DHT22;4807;48.024;11.726;2022-07-19T15:34:04;30.80;43.70
9537;DHT22;4807;48.024;11.726;2022-07-19T15:37:45;30.80;43.60
9537;DHT22;4807;48.024;11.726;2022-07-19T15:41:09;30.60;43.10
9537;DHT22;4807;48.024;11.726;2022-07-19T15:44:29;30.60;44.30
9537;DHT22;4807;48.024;11.726;2022-07-19T15:47:50;30.60;44.90
9537;DHT22;4807;48.024;11.726;2022-07-19T15:51:10;30.60;44.90
9537;DHT22;4807;48.024;11.726;2022-07-19T15:54:19;30.60;45.00
9537;DHT22;4807;48.024;11.726;2022-07-19T15:57:27;30.60;45.30
9537;DHT22;4807;48.024;11.726;2022-07-19T16:00:36;30.60;45.90
9537;DHT22;4807;48.024;11.726;2022-07-19T16:03:44;30.60;44.50
9537;DHT22;4807;48.024;11.726;2022-07-19T16:06:54;30.50;44.70
9537;DHT22;4807;48.024;11.726;2022-07-19T16:10:04;30.40;45.40
9537;DHT22;4807;48.024;11.726;2022-07-19T16:13:15;30.40;44.70
9537;DHT22;4807;48.024;11.726;2022-07-19T16:16:52;30.40;44.30
9537;DHT22;4807;48.024;11.726;2022-07-19T16:20:01;30.40;44.00
9537;DHT22;4807;48.024;11.726;2022-07-19T16:23:15;30.40;44.30
9537;DHT22;4807;48.024;11.726;2022-07-19T16:26:23;30.40;45.10
9537;DHT22;4807;48.024;11.726;2022-07-19T16:29:32;30.30;44.70
9537;DHT22;4807;48.024;11.726;2022-07-19T16:32:40;30.30;44.80
9537;DHT22;4807;48.024;11.726;2022-07-19T16:35:49;30.20;45.20
9537;DHT22;4807;48.024;11.726;2022-07-19T16:38:59;30.30;45.20
9537;DHT22;4807;48.024;11.726;2022-07-19T16:42:27;30.30;45.40
9537;DHT22;4807;48.024;11.726;2022-07-19T16:45:55;30.30;44.80
9537;DHT22;4807;48.024;11.726;2022-07-19T16:49:04;30.20;44.70
9537;DHT22;4807;48.024;11.726;2022-07-19T16:52:12;30.20;44.90
9537;DHT22;4807;48.024;11.726;2022-07-19T16:55:21;30.90;44.70
9537;DHT22;4807;48.024;11.726;2022-07-19T16:58:29;32.10;43.10
9537;DHT22;4807;48.024;11.726;2022-07-19T17:01:38;33.70;40.10
9537;DHT22;4807;48.024;11.726;2022-07-19T17:04:46;34.70;38.60
9537;DHT22;4807;48.024;11.726;2022-07-19T17:07:55;35.00;37.60
9537;DHT22;4807;48.024;11.726;2022-07-19T17:11:05;35.40;38.00
9537;DHT22;4807;48.024;11.726;2022-07-19T17:14:13;36.60;36.60
9537;DHT22;4807;48.024;11.726;2022-07-19T17:17:22;36.30;35.50
9537;DHT22;4807;48.024;11.726;2022-07-19T17:20:30;35.80;36.00
9537;DHT22;4807;48.024;11.726;2022-07-19T17:23:39;35.70;36.50
9537;DHT22;4807;48.024;11.726;2022-07-19T17:26:49;35.40;36.70
9537;DHT22;4807;48.024;11.726;2022-07-19T17:29:57;35.30;37.10
9537;DHT22;4807;48.024;11.726;2022-07-19T17:33:05;35.70;36.60
9537;DHT22;4807;48.024;11.726;2022-07-19T17:36:14;35.50;37.00
9537;DHT22;4807;48.024;11.726;2022-07-19T17:39:22;34.80;37.60
9537;DHT22;4807;48.024;11.726;2022-07-19T17:42:32;34.40;38.70
9537;DHT22;4807;48.024;11.726;2022-07-19T17:45:42;33.60;38.90
9537;DHT22;4807;48.024;11.726;2022-07-19T17:48:50;32.70;40.10
9537;DHT22;4807;48.024;11.726;2022-07-19T17:51:59;31.60;41.90
9537;DHT22;4807;48.024;11.726;2022-07-19T17:55:09;30.50;44.30
9537;DHT22;4807;48.024;11.726;2022-07-19T17:58:19;29.70;45.30
9537;DHT22;4807;48.024;11.726;2022-07-19T18:01:29;29.20;46.50
9537;DHT22;4807;48.024;11.726;2022-07-19T18:04:37;28.80;47.00
9537;DHT22;4807;48.024;11.726;2022-07-19T18:07:46;28.50;47.80
9537;DHT22;4807;48.024;11.726;2022-07-19T18:10:54;28.10;48.30
9537;DHT22;4807;48.024;11.726;2022-07-19T18:14:05;28.10;49.20
9537;DHT22;4807;48.024;11.726;2022-07-19T18:17:15;27.90;49.40
9537;DHT22;4807;48.024;11.726;2022-07-19T18:20:24;27.70;49.60
9537;DHT22;4807;48.024;11.726;2022-07-19T18:23:32;27.70;50.00
9537;DHT22;4807;48.024;11.726;2022-07-19T18:26:41;27.50;50.40
9537;DHT22;4807;48.024;11.726;2022-07-19T18:29:52;27.30;50.50
9537;DHT22;4807;48.024;11.726;2022-07-19T18:33:00;27.60;51.00
9537;DHT22;4807;48.024;11.726;2022-07-19T18:36:09;27.30;50.90
9537;DHT22;4807;48.024;11.726;2022-07-19T18:39:17;27.00;51.20
9537;DHT22;4807;48.024;11.726;2022-07-19T18:42:26;26.60;52.20
9537;DHT22;4807;48.024;11.726;2022-07-19T18:45:36;26.40;53.00
9537;DHT22;4807;48.024;11.726;2022-07-19T18:48:44;26.10;53.50
9537;DHT22;4807;48.024;11.726;2022-07-19T18:51:55;26.00;54.00
9537;DHT22;4807;48.024;11.726;2022-07-19T18:55:04;25.80;53.80
9537;DHT22;4807;48.024;11.726;2022-07-19T18:58:13;25.70;54.90
9537;DHT22;4807;48.024;11.726;2022-07-19T19:01:23;25.40;54.70
9537;DHT22;4807;48.024;11.726;2022-07-19T19:04:31;25.10;56.00
9537;DHT22;4807;48.024;11.726;2022-07-19T19:07:41;24.80;56.60
9537;DHT22;4807;48.024;11.726;2022-07-19T19:10:50;24.60;57.40
9537;DHT22;4807;48.024;11.726;2022-07-19T19:13:59;24.30;57.80
9537;DHT22;4807;48.024;11.726;2022-07-19T19:17:09;24.10;57.90
9537;DHT22;4807;48.024;11.726;2022-07-19T19:20:19;24.00;58.90
9537;DHT22;4807;48.024;11.726;2022-07-19T19:23:32;23.70;59.30
9537;DHT22;4807;48.024;11.726;2022-07-19T19:26:40;23.50;59.90
9537;DHT22;4807;48.024;11.726;2022-07-19T19:29:49;23.40;59.80
9537;DHT22;4807;48.024;11.726;2022-07-19T19:32:59;23.20;60.00
9537;DHT22;4807;48.024;11.726;2022-07-19T19:36:10;23.10;60.40
9537;DHT22;4807;48.024;11.726;2022-07-19T19:39:19;22.90;61.70
9537;DHT22;4807;48.024;11.726;2022-07-19T19:42:27;22.70;62.10
9537;DHT22;4807;48.024;11.726;2022-07-19T19:45:37;22.50;62.60
9537;DHT22;4807;48.024;11.726;2022-07-19T19:48:48;22.30;63.70
9537;DHT22;4807;48.024;11.726;2022-07-19T19:51:57;22.10;64.10
9537;DHT22;4807;48.024;11.726;2022-07-19T19:55:05;22.00;64.80
9537;DHT22;4807;48.024;11.726;2022-07-19T19:58:14;21.90;64.70
9537;DHT22;4807;48.024;11.726;2022-07-19T20:01:23;21.80;65.00
9537;DHT22;4807;48.024;11.726;2022-07-19T20:04:34;21.80;65.50
9537;DHT22;4807;48.024;11.726;2022-07-19T20:07:43;21.60;66.00
9537;DHT22;4807;48.024;11.726;2022-07-19T20:10:52;21.40;66.70
9537;DHT22;4807;48.024;11.726;2022-07-19T20:14:01;21.50;67.60
9537;DHT22;4807;48.024;11.726;2022-07-19T20:17:36;21.30;67.40
9537;DHT22;4807;48.024;11.726;2022-07-19T20:20:47;21.20;67.90
9537;DHT22;4807;48.024;11.726;2022-07-19T20:24:04;21.10;68.20
9537;DHT22;4807;48.024;11.726;2022-07-19T20:27:14;21.00;68.30
9537;DHT22;4807;48.024;11.726;2022-07-19T20:30:23;20.90;68.80
9537;DHT22;4807;48.024;11.726;2022-07-19T20:33:31;20.80;69.30
9537;DHT22;4807;48.024;11.726;2022-07-19T20:37:12;20.80;69.80